createdAt,value
2022-10-06T00:01:13.368Z,13.83
2022-10-06T00:06:18.383Z,13.73
2022-10-06T00:11:23.448Z,13.73
2022-10-06T00:16:27.159Z,13.73
2022-10-06T00:21:30.878Z,13.73
2022-10-06T00:26:36.051Z,13.67
2022-10-06T00:31:39.860Z,13.71
2022-10-06T00:36:43.912Z,13.63
2022-10-06T00:41:49.014Z,13.54
2022-10-06T00:46:54.592Z,13.53
2022-10-06T00:52:03.491Z,13.52
2022-10-06T00:57:08.956Z,13.52
2022-10-06T01:02:16.470Z,13.40
2022-10-06T01:07:22.364Z,13.28
2022-10-06T01:12:30.662Z,13.16
2022-10-06T01:17:39.254Z,13.13
2022-10-06T01:22:46.263Z,13.16
2022-10-06T01:27:53.785Z,13.00
2022-10-06T01:32:58.919Z,12.99
2022-10-06T01:38:04.852Z,12.93
2022-10-06T01:43:08.802Z,12.89
2022-10-06T01:48:12.631Z,12.94
2022-10-06T01:53:18.833Z,12.75
2022-10-06T01:58:22.572Z,12.78
2022-10-06T02:03:26.792Z,12.68
2022-10-06T02:08:32.372Z,12.68
2022-10-06T02:13:37.600Z,12.65
2022-10-06T02:18:41.878Z,12.44
2022-10-06T02:23:47.569Z,12.44
2022-10-06T02:28:51.431Z,12.42
2022-10-06T02:33:55.562Z,12.30
2022-10-06T02:39:01.364Z,12.13
2022-10-06T02:44:05.624Z,12.11
2022-10-06T02:49:09.512Z,12.03
2022-10-06T02:54:15.454Z,12.05
2022-10-06T02:59:19.174Z,11.98
2022-10-06T03:04:23.002Z,11.94
2022-10-06T03:09:29.078Z,11.92
2022-10-06T03:14:33.357Z,11.91
2022-10-06T03:19:38.464Z,11.83
2022-10-06T03:24:43.729Z,11.75
2022-10-06T03:29:47.595Z,11.74
2022-10-06T03:34:53.309Z,11.64
2022-10-06T03:39:58.647Z,11.58
2022-10-06T03:45:02.643Z,11.63
2022-10-06T03:50:07.437Z,11.54
2022-10-06T03:55:12.617Z,11.52
2022-10-06T04:00:17.224Z,11.54
2022-10-06T04:05:23.076Z,11.47
2022-10-06T04:10:28.217Z,11.34
2022-10-06T04:15:32.539Z,11.27
2022-10-06T04:20:36.287Z,11.28
2022-10-06T04:25:41.882Z,11.21
2022-10-06T04:30:56.533Z,11.12
2022-10-06T04:36:01.833Z,11.11
2022-10-06T04:41:09.220Z,11.02
2022-10-06T04:46:40.803Z,10.95
2022-10-06T04:51:38.398Z,11.00
2022-10-06T04:56:43.576Z,10.89
2022-10-06T05:01:48.121Z,10.82
2022-10-06T05:06:52.033Z,10.88
2022-10-06T05:11:57.984Z,10.88
2022-10-06T05:17:02.260Z,10.87
2022-10-06T05:22:06.227Z,10.78
2022-10-06T05:27:12.056Z,10.77
2022-10-06T05:32:15.930Z,10.74
2022-10-06T05:37:20.249Z,10.53
2022-10-06T05:42:29.547Z,10.58
2022-10-06T05:47:34.324Z,10.52
2022-10-06T05:52:39.274Z,10.38
2022-10-06T05:57:44.725Z,10.34
2022-10-06T06:02:48.657Z,10.47
2022-10-06T06:07:52.593Z,10.48
2022-10-06T06:12:57.693Z,10.43
2022-10-06T06:18:06.023Z,10.42
2022-10-06T06:23:10.032Z,10.38
2022-10-06T06:28:15.252Z,10.44
2022-10-06T06:33:20.612Z,10.49
2022-10-06T06:38:24.538Z,10.58
2022-10-06T06:43:30.140Z,10.57
2022-10-06T06:48:36.011Z,10.71
2022-10-06T06:53:40.715Z,10.79
2022-10-06T06:58:48.124Z,10.85
2022-10-06T07:03:58.797Z,10.91
2022-10-06T07:09:04.932Z,10.96
2022-10-06T07:14:12.650Z,10.94
2022-10-06T07:19:36.416Z,11.17
2022-10-06T07:24:57.871Z,11.25
2022-10-06T07:30:03.198Z,11.37
2022-10-06T07:35:08.792Z,11.52
2022-10-06T07:40:14.918Z,11.58
2022-10-06T07:45:41.429Z,11.66
2022-10-06T07:50:48.028Z,11.85
2022-10-06T07:55:53.445Z,12.00
2022-10-06T08:01:06.568Z,12.21
2022-10-06T08:06:12.372Z,12.38
2022-10-06T08:11:17.168Z,12.51
2022-10-06T08:16:24.187Z,12.67
2022-10-06T08:21:29.937Z,12.80
2022-10-06T08:26:34.560Z,13.00
2022-10-06T08:31:39.668Z,13.14
2022-10-06T08:37:02.105Z,13.28
2022-10-06T08:42:14.431Z,13.45
2022-10-06T08:47:22.899Z,13.62
2022-10-06T08:52:42.425Z,13.80
2022-10-06T08:57:56.822Z,14.00
2022-10-06T09:03:02.947Z,14.09
2022-10-06T09:08:24.557Z,14.37
2022-10-06T09:13:32.089Z,14.41
2022-10-06T09:19:06.757Z,14.60
2022-10-06T09:24:11.485Z,14.77
2022-10-06T09:29:15.673Z,14.84
2022-10-06T09:34:31.735Z,14.90
2022-10-06T09:39:37.549Z,14.96
2022-10-06T09:44:53.134Z,15.48
2022-10-06T09:50:22.602Z,15.63
2022-10-06T09:55:28.779Z,15.90
2022-10-06T10:00:35.924Z,16.39
2022-10-06T10:05:48.247Z,16.30
2022-10-06T10:11:32.458Z,16.32
2022-10-06T10:16:36.988Z,16.52
2022-10-06T10:21:46.090Z,17.37
2022-10-06T10:26:57.948Z,18.99
2022-10-06T10:32:12.276Z,18.71
2022-10-06T10:37:24.275Z,18.96
2022-10-06T10:42:35.157Z,19.11
2022-10-06T10:47:41.400Z,19.38
2022-10-06T10:52:49.810Z,19.41
2022-10-06T10:57:56.895Z,20.42
2022-10-06T11:03:02.872Z,20.83
2022-10-06T11:08:16.700Z,21.52
2022-10-06T11:13:26.245Z,22.10
2022-10-06T11:18:41.363Z,22.32
2022-10-06T11:23:53.206Z,22.20
2022-10-06T11:29:05.226Z,21.13
2022-10-06T11:34:10.888Z,21.42
2022-10-06T11:39:25.903Z,23.10
2022-10-06T11:44:37.605Z,22.51
2022-10-06T11:49:52.271Z,22.81
2022-10-06T11:55:07.406Z,23.22
2022-10-06T12:00:42.172Z,23.34
2022-10-06T12:06:01.231Z,22.12
2022-10-06T12:11:40.900Z,21.86
2022-10-06T12:22:18.109Z,23.54
2022-10-06T12:27:39.029Z,25.10
2022-10-06T12:32:53.220Z,25.74
2022-10-06T12:38:00.585Z,26.41
2022-10-06T12:43:31.561Z,27.18
2022-10-06T12:48:41.427Z,26.14
2022-10-06T12:53:53.295Z,27.05
2022-10-06T12:58:58.824Z,28.06
2022-10-06T13:04:02.597Z,26.59
2022-10-06T13:09:13.958Z,27.20
2022-10-06T13:14:18.978Z,25.75
2022-10-06T13:19:28.239Z,27.71
2022-10-06T13:24:32.021Z,27.52
2022-10-06T13:29:37.227Z,28.84
2022-10-06T13:34:43.303Z,29.30
2022-10-06T13:39:47.374Z,29.53
2022-10-06T13:44:59.060Z,29.16
2022-10-06T13:50:06.163Z,29.76
2022-10-06T13:55:15.735Z,29.53
2022-10-06T14:00:23.142Z,29.07
2022-10-06T14:05:30.540Z,29.31
2022-10-06T14:10:47.023Z,28.99
2022-10-06T14:15:54.308Z,29.59
2022-10-06T14:20:58.913Z,30.01
2022-10-06T14:26:02.691Z,28.36
2022-10-06T14:31:13.497Z,27.70
2022-10-06T14:36:20.779Z,27.98
2022-10-06T14:41:27.897Z,29.00
2022-10-06T14:46:33.330Z,28.25
2022-10-06T14:51:38.027Z,27.31
2022-10-06T14:56:43.007Z,27.95
2022-10-06T15:01:49.848Z,28.08
2022-10-06T15:07:11.299Z,27.56
2022-10-06T15:12:15.162Z,28.44
2022-10-06T15:17:20.241Z,27.65
2022-10-06T15:22:24.150Z,28.18
2022-10-06T15:27:45.548Z,27.25
2022-10-06T15:32:51.134Z,26.77
2022-10-06T15:37:56.491Z,26.73
2022-10-06T15:43:00.288Z,24.33
2022-10-06T15:48:05.436Z,24.22
2022-10-06T15:53:09.163Z,23.47
2022-10-06T15:58:12.875Z,22.48
2022-10-06T16:03:38.738Z,22.40
2022-10-06T16:08:44.760Z,21.73
2022-10-06T16:13:48.484Z,21.73
2022-10-06T16:18:53.784Z,21.00
2022-10-06T16:23:57.861Z,20.76
2022-10-06T16:29:01.596Z,20.97
2022-10-06T16:34:06.797Z,20.69
2022-10-06T16:39:14.340Z,20.79
2022-10-06T16:44:18.507Z,20.46
2022-10-06T16:49:24.502Z,20.40
2022-10-06T16:54:28.252Z,20.24
2022-10-06T16:59:32.014Z,19.89
2022-10-06T17:04:37.226Z,19.71
2022-10-06T17:09:55.842Z,19.48
2022-10-06T17:15:05.180Z,19.21
2022-10-06T17:20:10.890Z,18.96
2022-10-06T17:25:15.340Z,18.74
2022-10-06T17:30:19.167Z,18.54
2022-10-06T17:35:24.321Z,18.19
2022-10-06T17:40:28.349Z,18.09
2022-10-06T17:45:32.151Z,17.83
2022-10-06T17:50:37.266Z,17.59
2022-10-06T17:55:40.971Z,17.41
2022-10-06T18:00:44.881Z,17.25
2022-10-06T18:05:58.943Z,17.05
2022-10-06T18:11:20.400Z,16.84
2022-10-06T18:16:26.724Z,16.75
2022-10-06T18:21:37.339Z,16.56
2022-10-06T18:26:41.950Z,16.36
2022-10-06T18:31:46.141Z,16.25
2022-10-06T18:36:51.755Z,16.11
2022-10-06T18:41:57.820Z,16.08
2022-10-06T18:47:19.172Z,16.02
2022-10-06T18:52:24.297Z,15.84
2022-10-06T18:57:28.185Z,15.79
2022-10-06T19:02:32.271Z,15.66
2022-10-06T19:07:38.098Z,15.53
2022-10-06T19:12:41.849Z,15.50
2022-10-06T19:17:46.360Z,15.41
2022-10-06T19:22:51.404Z,15.33
2022-10-06T19:27:55.093Z,15.23
2022-10-06T19:32:58.751Z,15.16
2022-10-06T19:38:03.924Z,15.09
2022-10-06T19:43:07.694Z,14.98
2022-10-06T19:48:11.580Z,14.87
2022-10-06T19:53:17.134Z,14.79
2022-10-06T19:58:20.853Z,14.59
2022-10-06T20:03:24.619Z,14.51
2022-10-06T20:08:30.500Z,14.53
2022-10-06T20:13:37.764Z,14.43
2022-10-06T20:18:43.326Z,14.31
2022-10-06T20:23:53.691Z,14.32
2022-10-06T20:28:57.452Z,14.25
2022-10-06T20:34:02.832Z,14.16
2022-10-06T20:39:27.515Z,14.07
2022-10-06T20:44:31.263Z,14.05
2022-10-06T20:49:35.442Z,13.86
2022-10-06T20:54:40.464Z,13.84
2022-10-06T20:59:45.853Z,13.75
2022-10-06T21:04:49.565Z,13.74
2022-10-06T21:09:54.669Z,13.71
2022-10-06T21:14:58.347Z,13.58
2022-10-06T21:20:01.996Z,13.34
2022-10-06T21:25:08.432Z,13.44
2022-10-06T21:30:13.650Z,13.34
2022-10-06T21:35:17.379Z,13.25
2022-10-06T21:40:22.426Z,13.25
2022-10-06T21:45:32.935Z,13.10
2022-10-06T21:50:37.007Z,12.92
2022-10-06T21:55:42.119Z,12.97
2022-10-06T22:00:45.787Z,12.91
2022-10-06T22:05:49.536Z,12.69
2022-10-06T22:10:54.581Z,12.82
2022-10-06T22:15:58.458Z,12.73
2022-10-06T22:21:02.153Z,12.66
2022-10-06T22:26:07.850Z,12.49
2022-10-06T22:31:13.135Z,12.53
2022-10-06T22:36:16.990Z,12.44
2022-10-06T22:41:22.940Z,12.44
2022-10-06T22:46:27.325Z,12.35
2022-10-06T22:51:31.014Z,12.31
2022-10-06T22:56:36.053Z,12.22
2022-10-06T23:01:39.743Z,12.24
2022-10-06T23:06:43.394Z,12.05
2022-10-06T23:11:48.406Z,11.98
2022-10-06T23:16:52.224Z,11.95
2022-10-06T23:21:55.961Z,11.88
2022-10-06T23:27:04.279Z,11.83
2022-10-06T23:32:07.954Z,11.60
2022-10-06T23:37:11.756Z,11.64
2022-10-06T23:42:16.810Z,11.58
2022-10-06T23:47:20.689Z,11.49
2022-10-06T23:52:24.375Z,11.53
2022-10-06T23:57:29.409Z,11.51
